Time;durP1;ratioP1;P1;durP2;ratioP2;P2;SDS_P1;SDS_P2;PMS_P1;PMS_P2;Temp;Humidity;BMP_temperature;BMP_pressure;BME280_temperature;BME280_humidity;BME280_pressure;Samples;Min_cycle;Max_cycle;Signal;HPM_P1;HPM_P2
2021/08/12 00:01:32;;;;;;;9.75;4.65;;;;;;;14.81;100.00;100823.55;713693;1205;114853;-81
2021/08/12 00:16:35;;;;;;;6.30;4.13;;;;;;;14.55;100.00;100830.51;713757;1203;113631;-81
2021/08/12 00:31:37;;;;;;;8.20;5.13;;;;;;;14.42;100.00;100825.57;713622;1205;114461;-81
2021/08/12 00:46:39;;;;;;;13.00;7.50;;;;;;;14.28;100.00;100834.82;713662;1205;114953;-80
2021/08/12 01:01:42;;;;;;;12.47;6.27;;;;;;;14.08;100.00;100824.34;713757;1200;115987;-80
2021/08/12 01:16:48;;;;;;;10.77;6.40;;;;;;;13.99;100.00;100825.22;714115;1206;116086;-80
2021/08/12 01:32:24;;;;;;;14.10;6.88;;;;;;;13.87;100.00;100814.02;714192;1177;114488;-81
2021/08/12 01:47:28;;;;;;;6.35;4.90;;;;;;;13.69;100.00;100810.45;714340;1183;115639;-80
2021/08/12 02:02:32;;;;;;;13.50;9.00;;;;;;;13.53;100.00;100814.51;713808;1200;115401;-80
2021/08/12 02:17:34;;;;;;;15.58;8.58;;;;;;;13.35;100.00;100808.27;713924;1203;114212;-81
2021/08/12 02:32:38;;;;;;;11.18;6.10;;;;;;;13.22;100.00;100833.08;715083;1203;114371;-81
2021/08/12 02:47:41;;;;;;;7.80;5.17;;;;;;;12.93;100.00;100822.54;713913;1205;115129;-82
2021/08/12 03:02:47;;;;;;;6.63;4.73;;;;;;;13.07;100.00;100827.40;713835;1205;114226;-81
2021/08/12 03:17:51;;;;;;;8.73;5.40;;;;;;;12.91;100.00;100835.84;714249;1201;114546;-80
2021/08/12 03:32:53;;;;;;;9.33;5.30;;;;;;;12.98;100.00;100847.48;714460;1176;114117;-80
2021/08/12 03:47:59;;;;;;;7.10;4.10;;;;;;;13.06;100.00;100862.60;713887;1201;115469;-80
2021/08/12 04:03:01;;;;;;;11.10;7.23;;;;;;;12.84;100.00;100861.08;714549;1200;115916;-80
2021/08/12 04:18:04;;;;;;;10.60;7.23;;;;;;;13.26;100.00;100881.91;714023;1203;114730;-81
2021/08/12 04:33:06;;;;;;;11.98;5.83;;;;;;;13.72;100.00;100891.89;714051;1202;115211;-80
2021/08/12 04:48:08;;;;;;;7.98;5.58;;;;;;;14.00;100.00;100899.89;713962;1199;114353;-81
2021/08/12 05:03:10;;;;;;;11.63;6.00;;;;;;;14.43;100.00;100886.13;713924;1202;114567;-80
2021/08/12 05:18:13;;;;;;;9.05;6.50;;;;;;;15.23;100.00;100900.55;713993;1200;114368;-82
2021/08/12 05:33:15;;;;;;;12.90;6.53;;;;;;;15.99;100.00;100915.08;714204;1200;114252;-86
2021/08/12 05:48:19;;;;;;;11.50;6.90;;;;;;;16.64;100.00;100922.55;714074;1205;114710;-87
2021/08/12 06:03:21;;;;;;;10.33;6.23;;;;;;;17.22;100.00;100927.20;715440;1179;114258;-87
2021/08/12 06:18:24;;;;;;;8.98;6.35;;;;;;;17.79;100.00;100921.11;715861;1200;114323;-87
2021/08/12 06:33:26;;;;;;;8.25;6.40;;;;;;;18.40;100.00;100942.75;714475;1178;114100;-76
2021/08/12 06:48:28;;;;;;;13.05;6.45;;;;;;;19.05;100.00;100948.80;714030;1180;114197;-82
2021/08/12 07:03:30;;;;;;;9.15;5.85;;;;;;;19.76;100.00;100940.65;714615;1177;115338;-82
2021/08/12 07:18:34;;;;;;;8.77;6.77;;;;;;;20.34;100.00;100947.30;714342;1202;114810;-81
2021/08/12 07:33:36;;;;;;;9.20;6.05;;;;;;;21.09;100.00;100948.86;713903;1200;114411;-84
2021/08/12 07:48:40;;;;;;;9.27;5.73;;;;;;;22.26;100.00;100960.15;714389;1200;114228;-85
2021/08/12 08:03:43;;;;;;;6.43;4.10;;;;;;;22.97;100.00;100965.44;714014;1200;115141;-83
2021/08/12 08:18:45;;;;;;;5.15;4.25;;;;;;;22.88;100.00;100967.45;714470;1203;114058;-84
2021/08/12 08:33:47;;;;;;;6.23;4.28;;;;;;;23.04;100.00;100988.52;714263;1193;114314;-83
2021/08/12 08:48:57;;;;;;;5.05;3.75;;;;;;;24.19;95.89;100989.48;713926;1197;114811;-84
2021/08/12 09:03:59;;;;;;;6.20;3.20;;;;;;;24.53;94.27;101006.33;714211;1205;113935;-84
2021/08/12 09:19:22;;;;;;;3.67;2.80;;;;;;;25.25;88.00;101003.59;715266;1200;114992;-82
2021/08/12 09:34:24;;;;;;;3.80;2.73;;;;;;;24.66;85.77;101000.95;714484;1200;113955;-83
2021/08/12 09:49:42;;;;;;;4.03;3.20;;;;;;;25.35;82.11;100995.92;715180;1203;114522;-80
2021/08/12 10:04:45;;;;;;;5.03;3.35;;;;;;;25.04;81.23;101005.55;714089;1200;114590;-81
2021/08/12 10:19:48;;;;;;;4.23;2.88;;;;;;;26.11;77.71;101019.34;714348;1177;113223;-84
2021/08/12 10:34:50;;;;;;;4.67;3.17;;;;;;;26.75;76.90;101017.23;714642;1203;113851;-84
2021/08/12 10:50:23;;;;;;;7.03;3.20;;;;;;;26.63;73.77;101014.44;716425;1200;114666;-76
2021/08/12 11:06:12;;;;;;;7.00;3.25;;;;;;;26.55;73.74;101010.21;715153;1178;113932;-81
2021/08/12 11:21:38;;;;;;;4.23;3.30;;;;;;;27.14;71.23;101014.28;719121;1194;114702;-79
2021/08/12 11:37:11;;;;;;;5.00;4.50;;;;;;;27.11;69.53;100988.63;714293;1200;115608;-78
2021/08/12 11:52:13;;;;;;;4.88;3.83;;;;;;;28.45;67.88;100986.45;714470;1200;114146;-78
2021/08/12 12:07:15;;;;;;;6.13;4.20;;;;;;;28.26;66.07;100984.98;714132;1203;114929;-79
2021/08/12 12:22:17;;;;;;;4.77;2.70;;;;;;;27.70;65.63;100988.81;714264;1206;114124;-78
2021/08/12 12:37:21;;;;;;;3.43;2.37;;;;;;;29.07;63.91;100976.08;714465;1202;114551;-78
2021/08/12 12:52:23;;;;;;;3.80;2.13;;;;;;;30.04;62.25;100980.41;714298;1200;114301;-77
2021/08/12 13:07:26;;;;;;;4.30;2.10;;;;;;;28.93;60.97;100965.58;714705;1200;115546;-92
2021/08/12 13:22:28;;;;;;;2.90;2.03;;;;;;;29.40;60.10;100967.22;714528;1200;114039;-81
2021/08/12 13:37:30;;;;;;;5.65;2.60;;;;;;;29.09;59.67;100955.03;714432;1202;115694;-81
2021/08/12 13:52:32;;;;;;;3.60;2.70;;;;;;;28.45;59.58;100948.67;715160;1200;114458;-80
2021/08/12 14:07:34;;;;;;;3.25;2.33;;;;;;;28.18;61.28;100943.01;713911;1203;115108;-81
2021/08/12 14:22:38;;;;;;;4.50;2.15;;;;;;;29.94;58.26;100955.11;714475;1200;114398;-81
2021/08/12 14:37:40;;;;;;;3.50;2.33;;;;;;;31.00;56.17;100950.42;714579;1200;115803;-81
2021/08/12 14:52:42;;;;;;;4.98;3.00;;;;;;;31.26;57.08;100939.86;715090;1202;115732;-77
2021/08/12 15:07:44;;;;;;;2.73;1.90;;;;;;;30.77;54.57;100935.32;715307;1200;115219;-77
2021/08/12 15:22:46;;;;;;;3.00;2.30;;;;;;;30.26;56.94;100944.43;715106;1202;114500;-75
2021/08/12 15:37:49;;;;;;;3.70;2.00;;;;;;;28.98;56.57;100929.73;715309;1177;113865;-83
2021/08/12 15:52:51;;;;;;;5.35;2.50;;;;;;;28.42;56.73;100937.56;714515;1202;113897;-79
2021/08/12 16:07:55;;;;;;;4.23;2.33;;;;;;;27.47;58.36;100926.81;714156;1200;114055;-87
2021/08/12 16:22:57;;;;;;;5.83;3.20;;;;;;;27.35;61.97;100929.45;714206;1203;114585;-78
2021/08/12 16:37:59;;;;;;;4.60;2.33;;;;;;;27.49;62.45;100936.30;715039;1178;115083;-82
2021/08/12 16:53:02;;;;;;;5.15;3.73;;;;;;;26.50;64.93;100936.59;714321;1202;114029;-76
2021/08/12 17:08:04;;;;;;;12.63;4.23;;;;;;;25.27;68.16;100937.06;714577;1202;114512;-80
2021/08/12 17:23:07;;;;;;;9.60;4.63;;;;;;;24.90;70.94;100929.67;714352;1178;114777;-79
2021/08/12 17:38:09;;;;;;;8.60;4.00;;;;;;;24.51;73.40;100938.70;714392;1200;115513;-80
2021/08/12 17:53:16;;;;;;;8.95;5.83;;;;;;;24.03;75.19;100951.39;714667;1178;114880;-81
2021/08/12 18:08:18;;;;;;;6.50;3.45;;;;;;;23.29;79.25;100966.56;715133;1183;114981;-82
2021/08/12 18:23:22;;;;;;;4.13;3.33;;;;;;;22.62;80.58;100958.31;716230;1176;112879;-81
2021/08/12 18:38:25;;;;;;;18.05;7.93;;;;;;;22.30;83.23;100962.42;715886;1180;113526;-81
2021/08/12 18:53:27;;;;;;;40.90;19.68;;;;;;;21.84;85.38;100980.61;715876;1200;114559;-75
2021/08/12 19:08:29;;;;;;;38.00;17.28;;;;;;;21.42;88.59;100990.25;715244;1200;114355;-77
2021/08/12 19:23:31;;;;;;;27.17;13.80;;;;;;;21.06;90.72;100991.92;714687;1200;114608;-77
2021/08/12 19:38:33;;;;;;;11.93;6.80;;;;;;;20.83;92.75;100992.04;715536;1206;115540;-82
2021/08/12 19:53:35;;;;;;;23.53;12.10;;;;;;;20.46;94.26;101009.76;714441;1206;114817;-82
2021/08/12 20:08:38;;;;;;;22.65;11.68;;;;;;;19.98;96.96;101020.71;714370;1177;114494;-82
2021/08/12 20:23:40;;;;;;;10.37;5.87;;;;;;;19.69;97.85;101024.05;714479;1197;114763;-83
2021/08/12 20:38:43;;;;;;;20.40;12.10;;;;;;;19.34;99.21;101019.11;714567;1200;114233;-83
2021/08/12 20:53:45;;;;;;;17.93;11.00;;;;;;;19.23;100.00;101024.84;714279;1183;114408;-82
2021/08/12 21:08:47;;;;;;;23.40;12.83;;;;;;;18.90;100.00;101027.66;714262;1202;115233;-82
2021/08/12 21:23:50;;;;;;;32.90;15.57;;;;;;;18.65;100.00;101030.35;714099;1203;114604;-82
2021/08/12 21:38:52;;;;;;;21.80;11.10;;;;;;;18.40;100.00;101024.27;714474;1200;115726;-81
2021/08/12 21:53:54;;;;;;;17.27;9.67;;;;;;;18.26;100.00;101026.59;714738;1200;113901;-81
2021/08/12 22:08:57;;;;;;;17.70;9.40;;;;;;;17.98;100.00;101027.95;714411;1205;114716;-84
2021/08/12 22:23:59;;;;;;;17.83;10.20;;;;;;;17.71;100.00;101012.16;714439;1200;114358;-82
2021/08/12 22:39:03;;;;;;;20.23;11.18;;;;;;;17.48;100.00;101021.73;714389;1202;116000;-82
2021/08/12 22:54:05;;;;;;;18.00;10.75;;;;;;;17.34;100.00;101024.03;714384;1188;116149;-82
2021/08/12 23:09:07;;;;;;;17.67;9.73;;;;;;;17.17;100.00;101031.09;714297;1177;114701;-82
2021/08/12 23:24:09;;;;;;;19.87;10.47;;;;;;;17.08;100.00;101022.27;714213;1202;116015;-82
2021/08/12 23:39:11;;;;;;;16.88;9.75;;;;;;;16.90;100.00;101026.84;714234;1205;114987;-83
2021/08/12 23:54:14;;;;;;;14.95;9.53;;;;;;;16.71;100.00;101036.65;714279;1202;115191;-83
